sensor_id;sensor_type;location;lat;lon;timestamp;pressure;altitude;pressure_sealevel;temperature
18219;BMP180;9234;49.344;11.120;2023-03-19T00:01:03;97201.00;;;8.00
18219;BMP180;9234;49.344;11.120;2023-03-19T00:03:32;97195.00;;;7.90
18219;BMP180;9234;49.344;11.120;2023-03-19T00:06:01;97200.00;;;7.90
18219;BMP180;9234;49.344;11.120;2023-03-19T00:08:29;97198.00;;;7.90
18219;BMP180;9234;49.344;11.120;2023-03-19T00:10:58;97196.00;;;7.90
18219;BMP180;9234;49.344;11.120;2023-03-19T00:13:28;97200.00;;;7.80
18219;BMP180;9234;49.344;11.120;2023-03-19T00:15:59;97187.00;;;7.80
18219;BMP180;9234;49.344;11.120;2023-03-19T00:18:27;97202.00;;;7.80
18219;BMP180;9234;49.344;11.120;2023-03-19T00:20:56;97206.00;;;7.80
18219;BMP180;9234;49.344;11.120;2023-03-19T00:23:24;97204.00;;;7.80
18219;BMP180;9234;49.344;11.120;2023-03-19T00:25:53;97191.00;;;7.80
18219;BMP180;9234;49.344;11.120;2023-03-19T00:28:21;97193.00;;;7.80
18219;BMP180;9234;49.344;11.120;2023-03-19T00:30:49;97184.00;;;7.80
18219;BMP180;9234;49.344;11.120;2023-03-19T00:33:19;97188.00;;;7.70
18219;BMP180;9234;49.344;11.120;2023-03-19T00:35:47;97212.00;;;7.70
18219;BMP180;9234;49.344;11.120;2023-03-19T00:38:16;97201.00;;;7.70
18219;BMP180;9234;49.344;11.120;2023-03-19T00:40:44;97210.00;;;7.70
18219;BMP180;9234;49.344;11.120;2023-03-19T00:43:13;97214.00;;;7.70
18219;BMP180;9234;49.344;11.120;2023-03-19T00:45:42;97211.00;;;7.70
18219;BMP180;9234;49.344;11.120;2023-03-19T00:48:10;97214.00;;;7.70
18219;BMP180;9234;49.344;11.120;2023-03-19T00:50:39;97199.00;;;7.70
18219;BMP180;9234;49.344;11.120;2023-03-19T00:53:08;97207.00;;;7.70
18219;BMP180;9234;49.344;11.120;2023-03-19T00:55:36;97216.00;;;7.70
18219;BMP180;9234;49.344;11.120;2023-03-19T00:58:05;97225.00;;;7.60
18219;BMP180;9234;49.344;11.120;2023-03-19T01:00:35;97221.00;;;7.60
18219;BMP180;9234;49.344;11.120;2023-03-19T01:03:04;97223.00;;;7.60
18219;BMP180;9234;49.344;11.120;2023-03-19T01:05:33;97219.00;;;7.60
18219;BMP180;9234;49.344;11.120;2023-03-19T01:08:03;97218.00;;;7.60
18219;BMP180;9234;49.344;11.120;2023-03-19T01:10:32;97230.00;;;7.50
18219;BMP180;9234;49.344;11.120;2023-03-19T01:13:04;97222.00;;;7.50
18219;BMP180;9234;49.344;11.120;2023-03-19T01:15:35;97219.00;;;7.50
18219;BMP180;9234;49.344;11.120;2023-03-19T01:18:04;97215.00;;;7.40
18219;BMP180;9234;49.344;11.120;2023-03-19T01:20:34;97227.00;;;7.40
18219;BMP180;9234;49.344;11.120;2023-03-19T01:23:05;97224.00;;;7.40
18219;BMP180;9234;49.344;11.120;2023-03-19T01:25:35;97230.00;;;7.30
18219;BMP180;9234;49.344;11.120;2023-03-19T01:28:05;97222.00;;;7.30
18219;BMP180;9234;49.344;11.120;2023-03-19T01:30:35;97216.00;;;7.30
18219;BMP180;9234;49.344;11.120;2023-03-19T01:33:25;97228.00;;;7.20
18219;BMP180;9234;49.344;11.120;2023-03-19T01:36:03;97222.00;;;7.20
18219;BMP180;9234;49.344;11.120;2023-03-19T01:38:44;97222.00;;;7.20
18219;BMP180;9234;49.344;11.120;2023-03-19T01:41:15;97220.00;;;7.20
18219;BMP180;9234;49.344;11.120;2023-03-19T01:43:43;97238.00;;;7.10
18219;BMP180;9234;49.344;11.120;2023-03-19T01:46:26;97218.00;;;7.10
18219;BMP180;9234;49.344;11.120;2023-03-19T01:49:14;97227.00;;;7.10
18219;BMP180;9234;49.344;11.120;2023-03-19T01:51:47;97224.00;;;7.10
18219;BMP180;9234;49.344;11.120;2023-03-19T01:54:35;97227.00;;;7.00
18219;BMP180;9234;49.344;11.120;2023-03-19T01:57:17;97234.00;;;7.00
18219;BMP180;9234;49.344;11.120;2023-03-19T02:00:09;97219.00;;;7.00
18219;BMP180;9234;49.344;11.120;2023-03-19T02:02:48;97224.00;;;7.00
18219;BMP180;9234;49.344;11.120;2023-03-19T02:05:40;97223.00;;;7.00
18219;BMP180;9234;49.344;11.120;2023-03-19T02:08:15;97212.00;;;7.00
18219;BMP180;9234;49.344;11.120;2023-03-19T02:10:47;97218.00;;;6.90
18219;BMP180;9234;49.344;11.120;2023-03-19T02:13:16;97218.00;;;7.00
18219;BMP180;9234;49.344;11.120;2023-03-19T02:15:45;97208.00;;;7.00
18219;BMP180;9234;49.344;11.120;2023-03-19T02:18:14;97215.00;;;7.00
18219;BMP180;9234;49.344;11.120;2023-03-19T02:20:53;97216.00;;;7.00
18219;BMP180;9234;49.344;11.120;2023-03-19T02:23:34;97207.00;;;7.00
18219;BMP180;9234;49.344;11.120;2023-03-19T02:26:16;97195.00;;;7.00
18219;BMP180;9234;49.344;11.120;2023-03-19T02:28:50;97206.00;;;7.00
18219;BMP180;9234;49.344;11.120;2023-03-19T02:31:25;97197.00;;;7.00
18219;BMP180;9234;49.344;11.120;2023-03-19T02:33:59;97186.00;;;7.00
18219;BMP180;9234;49.344;11.120;2023-03-19T02:36:32;97189.00;;;7.00
18219;BMP180;9234;49.344;11.120;2023-03-19T02:39:22;97199.00;;;7.00
18219;BMP180;9234;49.344;11.120;2023-03-19T02:41:55;97198.00;;;7.00
18219;BMP180;9234;49.344;11.120;2023-03-19T02:44:26;97194.00;;;7.00
18219;BMP180;9234;49.344;11.120;2023-03-19T02:46:54;97194.00;;;7.00
18219;BMP180;9234;49.344;11.120;2023-03-19T02:49:22;97214.00;;;7.00
18219;BMP180;9234;49.344;11.120;2023-03-19T02:51:51;97205.00;;;7.00
18219;BMP180;9234;49.344;11.120;2023-03-19T02:54:19;97215.00;;;7.10
18219;BMP180;9234;49.344;11.120;2023-03-19T02:56:48;97214.00;;;7.00
18219;BMP180;9234;49.344;11.120;2023-03-19T02:59:19;97231.00;;;7.00
18219;BMP180;9234;49.344;11.120;2023-03-19T03:01:48;97222.00;;;7.00
18219;BMP180;9234;49.344;11.120;2023-03-19T03:04:16;97222.00;;;7.00
18219;BMP180;9234;49.344;11.120;2023-03-19T03:06:45;97230.00;;;7.00
18219;BMP180;9234;49.344;11.120;2023-03-19T03:09:14;97231.00;;;7.00
18219;BMP180;9234;49.344;11.120;2023-03-19T03:11:43;97229.00;;;7.10
18219;BMP180;9234;49.344;11.120;2023-03-19T03:14:11;97232.00;;;7.10
18219;BMP180;9234;49.344;11.120;2023-03-19T03:16:41;97236.00;;;7.10
18219;BMP180;9234;49.344;11.120;2023-03-19T03:19:10;97252.00;;;7.10
18219;BMP180;9234;49.344;11.120;2023-03-19T03:21:41;97242.00;;;7.10
18219;BMP180;9234;49.344;11.120;2023-03-19T03:24:09;97237.00;;;7.10
18219;BMP180;9234;49.344;11.120;2023-03-19T03:26:37;97228.00;;;7.10
18219;BMP180;9234;49.344;11.120;2023-03-19T03:29:06;97230.00;;;7.10
18219;BMP180;9234;49.344;11.120;2023-03-19T03:31:34;97229.00;;;7.10
18219;BMP180;9234;49.344;11.120;2023-03-19T03:34:04;97227.00;;;7.20
18219;BMP180;9234;49.344;11.120;2023-03-19T03:36:34;97226.00;;;7.20
18219;BMP180;9234;49.344;11.120;2023-03-19T03:39:04;97235.00;;;7.20
18219;BMP180;9234;49.344;11.120;2023-03-19T03:41:32;97254.00;;;7.20
18219;BMP180;9234;49.344;11.120;2023-03-19T03:44:01;97236.00;;;7.20
18219;BMP180;9234;49.344;11.120;2023-03-19T03:46:33;97238.00;;;7.20
18219;BMP180;9234;49.344;11.120;2023-03-19T03:49:01;97238.00;;;7.20
18219;BMP180;9234;49.344;11.120;2023-03-19T03:51:31;97234.00;;;7.20
18219;BMP180;9234;49.344;11.120;2023-03-19T03:53:59;97239.00;;;7.20
18219;BMP180;9234;49.344;11.120;2023-03-19T03:56:28;97239.00;;;7.30
18219;BMP180;9234;49.344;11.120;2023-03-19T03:58:57;97257.00;;;7.30
18219;BMP180;9234;49.344;11.120;2023-03-19T04:01:25;97252.00;;;7.30
18219;BMP180;9234;49.344;11.120;2023-03-19T04:03:55;97264.00;;;7.30
18219;BMP180;9234;49.344;11.120;2023-03-19T04:06:25;97268.00;;;7.40
18219;BMP180;9234;49.344;11.120;2023-03-19T04:09:11;97253.00;;;7.40
18219;BMP180;9234;49.344;11.120;2023-03-19T04:11:40;97261.00;;;7.40
18219;BMP180;9234;49.344;11.120;2023-03-19T04:14:09;97261.00;;;7.40
18219;BMP180;9234;49.344;11.120;2023-03-19T04:16:38;97275.00;;;7.40
18219;BMP180;9234;49.344;11.120;2023-03-19T04:19:06;97266.00;;;7.50
18219;BMP180;9234;49.344;11.120;2023-03-19T04:21:34;97259.00;;;7.50
18219;BMP180;9234;49.344;11.120;2023-03-19T04:24:04;97248.00;;;7.50
18219;BMP180;9234;49.344;11.120;2023-03-19T04:26:33;97264.00;;;7.50
18219;BMP180;9234;49.344;11.120;2023-03-19T04:29:03;97254.00;;;7.50
18219;BMP180;9234;49.344;11.120;2023-03-19T04:31:32;97263.00;;;7.50
18219;BMP180;9234;49.344;11.120;2023-03-19T04:34:00;97263.00;;;7.50
18219;BMP180;9234;49.344;11.120;2023-03-19T04:36:28;97262.00;;;7.50
18219;BMP180;9234;49.344;11.120;2023-03-19T04:38:57;97270.00;;;7.50
18219;BMP180;9234;49.344;11.120;2023-03-19T04:41:25;97273.00;;;7.60
18219;BMP180;9234;49.344;11.120;2023-03-19T04:44:07;97271.00;;;7.60
18219;BMP180;9234;49.344;11.120;2023-03-19T04:46:38;97282.00;;;7.60
18219;BMP180;9234;49.344;11.120;2023-03-19T04:49:07;97275.00;;;7.60
18219;BMP180;9234;49.344;11.120;2023-03-19T04:51:36;97271.00;;;7.60
18219;BMP180;9234;49.344;11.120;2023-03-19T04:54:05;97277.00;;;7.60
18219;BMP180;9234;49.344;11.120;2023-03-19T04:56:33;97284.00;;;7.70
18219;BMP180;9234;49.344;11.120;2023-03-19T04:59:03;97287.00;;;7.70
18219;BMP180;9234;49.344;11.120;2023-03-19T05:01:33;97277.00;;;7.70
18219;BMP180;9234;49.344;11.120;2023-03-19T05:04:05;97281.00;;;7.70
18219;BMP180;9234;49.344;11.120;2023-03-19T05:06:35;97283.00;;;7.60
18219;BMP180;9234;49.344;11.120;2023-03-19T05:09:05;97274.00;;;7.60
18219;BMP180;9234;49.344;11.120;2023-03-19T05:11:34;97279.00;;;7.60
18219;BMP180;9234;49.344;11.120;2023-03-19T05:14:05;97287.00;;;7.60
18219;BMP180;9234;49.344;11.120;2023-03-19T05:17:00;97278.00;;;7.60
18219;BMP180;9234;49.344;11.120;2023-03-19T05:19:39;97273.00;;;7.60
18219;BMP180;9234;49.344;11.120;2023-03-19T05:22:08;97286.00;;;7.60
18219;BMP180;9234;49.344;11.120;2023-03-19T05:24:37;97290.00;;;7.60
18219;BMP180;9234;49.344;11.120;2023-03-19T05:27:07;97289.00;;;7.60
18219;BMP180;9234;49.344;11.120;2023-03-19T05:29:55;97294.00;;;7.60
18219;BMP180;9234;49.344;11.120;2023-03-19T05:32:39;97295.00;;;7.70
18219;BMP180;9234;49.344;11.120;2023-03-19T05:35:14;97308.00;;;7.70
18219;BMP180;9234;49.344;11.120;2023-03-19T05:37:43;97321.00;;;7.70
18219;BMP180;9234;49.344;11.120;2023-03-19T05:40:12;97311.00;;;7.70
18219;BMP180;9234;49.344;11.120;2023-03-19T05:42:43;97316.00;;;7.80
18219;BMP180;9234;49.344;11.120;2023-03-19T05:45:14;97315.00;;;7.80
18219;BMP180;9234;49.344;11.120;2023-03-19T05:47:51;97330.00;;;7.90
18219;BMP180;9234;49.344;11.120;2023-03-19T05:50:20;97328.00;;;7.90
18219;BMP180;9234;49.344;11.120;2023-03-19T05:53:11;97330.00;;;7.90
18219;BMP180;9234;49.344;11.120;2023-03-19T05:55:47;97342.00;;;8.00
18219;BMP180;9234;49.344;11.120;2023-03-19T05:58:16;97333.00;;;8.00
18219;BMP180;9234;49.344;11.120;2023-03-19T06:00:46;97338.00;;;8.10
18219;BMP180;9234;49.344;11.120;2023-03-19T06:03:16;97339.00;;;8.10
18219;BMP180;9234;49.344;11.120;2023-03-19T06:05:48;97345.00;;;8.20
18219;BMP180;9234;49.344;11.120;2023-03-19T06:08:30;97342.00;;;8.20
18219;BMP180;9234;49.344;11.120;2023-03-19T06:11:24;97354.00;;;8.20
18219;BMP180;9234;49.344;11.120;2023-03-19T06:14:12;97359.00;;;8.30
18219;BMP180;9234;49.344;11.120;2023-03-19T06:16:43;97361.00;;;8.30
18219;BMP180;9234;49.344;11.120;2023-03-19T06:19:13;97354.00;;;8.40
18219;BMP180;9234;49.344;11.120;2023-03-19T06:21:42;97362.00;;;8.40
18219;BMP180;9234;49.344;11.120;2023-03-19T06:24:10;97372.00;;;8.50
18219;BMP180;9234;49.344;11.120;2023-03-19T06:26:38;97375.00;;;8.60
18219;BMP180;9234;49.344;11.120;2023-03-19T06:29:13;97380.00;;;8.60
18219;BMP180;9234;49.344;11.120;2023-03-19T06:31:46;97370.00;;;8.70
18219;BMP180;9234;49.344;11.120;2023-03-19T06:34:23;97379.00;;;8.80
18219;BMP180;9234;49.344;11.120;2023-03-19T06:36:51;97382.00;;;8.90
18219;BMP180;9234;49.344;11.120;2023-03-19T06:39:20;97394.00;;;8.90
18219;BMP180;9234;49.344;11.120;2023-03-19T06:41:48;97376.00;;;9.00
18219;BMP180;9234;49.344;11.120;2023-03-19T06:44:20;97391.00;;;9.10
18219;BMP180;9234;49.344;11.120;2023-03-19T06:46:48;97381.00;;;9.20
18219;BMP180;9234;49.344;11.120;2023-03-19T06:49:17;97401.00;;;9.30
18219;BMP180;9234;49.344;11.120;2023-03-19T06:51:47;97400.00;;;9.40
18219;BMP180;9234;49.344;11.120;2023-03-19T06:54:15;97410.00;;;9.50
18219;BMP180;9234;49.344;11.120;2023-03-19T06:56:44;97401.00;;;9.60
18219;BMP180;9234;49.344;11.120;2023-03-19T06:59:13;97412.00;;;9.70
18219;BMP180;9234;49.344;11.120;2023-03-19T07:01:41;97419.00;;;9.80
18219;BMP180;9234;49.344;11.120;2023-03-19T07:04:10;97425.00;;;9.90
18219;BMP180;9234;49.344;11.120;2023-03-19T07:06:38;97435.00;;;10.10
18219;BMP180;9234;49.344;11.120;2023-03-19T07:09:08;97428.00;;;10.20
18219;BMP180;9234;49.344;11.120;2023-03-19T07:11:37;97434.00;;;10.30
18219;BMP180;9234;49.344;11.120;2023-03-19T07:14:05;97444.00;;;10.40
18219;BMP180;9234;49.344;11.120;2023-03-19T07:16:34;97445.00;;;10.50
18219;BMP180;9234;49.344;11.120;2023-03-19T07:19:02;97449.00;;;10.70
18219;BMP180;9234;49.344;11.120;2023-03-19T07:21:31;97452.00;;;10.80
18219;BMP180;9234;49.344;11.120;2023-03-19T07:23:59;97456.00;;;10.80
18219;BMP180;9234;49.344;11.120;2023-03-19T07:26:28;97461.00;;;10.90
18219;BMP180;9234;49.344;11.120;2023-03-19T07:28:58;97470.00;;;11.00
18219;BMP180;9234;49.344;11.120;2023-03-19T07:31:28;97468.00;;;11.00
18219;BMP180;9234;49.344;11.120;2023-03-19T07:33:56;97480.00;;;11.10
18219;BMP180;9234;49.344;11.120;2023-03-19T07:36:25;97471.00;;;11.10
18219;BMP180;9234;49.344;11.120;2023-03-19T07:38:53;97478.00;;;11.20
18219;BMP180;9234;49.344;11.120;2023-03-19T07:41:21;97477.00;;;11.30
18219;BMP180;9234;49.344;11.120;2023-03-19T07:43:51;97477.00;;;11.30
18219;BMP180;9234;49.344;11.120;2023-03-19T07:46:20;97474.00;;;11.40
18219;BMP180;9234;49.344;11.120;2023-03-19T07:48:48;97471.00;;;11.40
18219;BMP180;9234;49.344;11.120;2023-03-19T07:51:17;97477.00;;;11.50
18219;BMP180;9234;49.344;11.120;2023-03-19T07:53:45;97474.00;;;11.50
18219;BMP180;9234;49.344;11.120;2023-03-19T07:56:13;97475.00;;;11.60
18219;BMP180;9234;49.344;11.120;2023-03-19T07:58:42;97480.00;;;11.60
18219;BMP180;9234;49.344;11.120;2023-03-19T08:01:16;97482.00;;;11.70
18219;BMP180;9234;49.344;11.120;2023-03-19T08:03:44;97482.00;;;11.80
18219;BMP180;9234;49.344;11.120;2023-03-19T08:06:14;97478.00;;;11.90
18219;BMP180;9234;49.344;11.120;2023-03-19T08:08:42;97497.00;;;11.90
18219;BMP180;9234;49.344;11.120;2023-03-19T08:11:12;97489.00;;;11.90
18219;BMP180;9234;49.344;11.120;2023-03-19T08:13:41;97496.00;;;11.90
18219;BMP180;9234;49.344;11.120;2023-03-19T08:16:10;97493.00;;;12.00
18219;BMP180;9234;49.344;11.120;2023-03-19T08:18:40;97501.00;;;12.00
18219;BMP180;9234;49.344;11.120;2023-03-19T08:21:09;97500.00;;;12.00
18219;BMP180;9234;49.344;11.120;2023-03-19T08:23:37;97505.00;;;12.10
18219;BMP180;9234;49.344;11.120;2023-03-19T08:26:06;97503.00;;;12.10
18219;BMP180;9234;49.344;11.120;2023-03-19T08:28:34;97513.00;;;12.20
18219;BMP180;9234;49.344;11.120;2023-03-19T08:31:07;97527.00;;;12.20
18219;BMP180;9234;49.344;11.120;2023-03-19T08:33:36;97520.00;;;12.20
18219;BMP180;9234;49.344;11.120;2023-03-19T08:36:09;97524.00;;;12.30
18219;BMP180;9234;49.344;11.120;2023-03-19T08:38:39;97514.00;;;12.30
18219;BMP180;9234;49.344;11.120;2023-03-19T08:41:08;97524.00;;;12.40
18219;BMP180;9234;49.344;11.120;2023-03-19T08:43:37;97535.00;;;12.40
18219;BMP180;9234;49.344;11.120;2023-03-19T08:46:07;97531.00;;;12.50
18219;BMP180;9234;49.344;11.120;2023-03-19T08:48:37;97533.00;;;12.50
18219;BMP180;9234;49.344;11.120;2023-03-19T08:51:09;97532.00;;;12.50
18219;BMP180;9234;49.344;11.120;2023-03-19T08:53:38;97529.00;;;12.60
18219;BMP180;9234;49.344;11.120;2023-03-19T08:56:07;97528.00;;;12.60
18219;BMP180;9234;49.344;11.120;2023-03-19T08:58:36;97527.00;;;12.70
18219;BMP180;9234;49.344;11.120;2023-03-19T09:01:06;97530.00;;;12.70
18219;BMP180;9234;49.344;11.120;2023-03-19T09:03:36;97533.00;;;12.70
18219;BMP180;9234;49.344;11.120;2023-03-19T09:06:09;97544.00;;;12.80
18219;BMP180;9234;49.344;11.120;2023-03-19T09:08:37;97541.00;;;12.80
18219;BMP180;9234;49.344;11.120;2023-03-19T09:11:06;97554.00;;;12.80
18219;BMP180;9234;49.344;11.120;2023-03-19T09:13:34;97567.00;;;12.90
18219;BMP180;9234;49.344;11.120;2023-03-19T09:16:04;97561.00;;;12.90
18219;BMP180;9234;49.344;11.120;2023-03-19T09:18:33;97566.00;;;13.00
18219;BMP180;9234;49.344;11.120;2023-03-19T09:21:03;97561.00;;;13.00
18219;BMP180;9234;49.344;11.120;2023-03-19T09:23:33;97561.00;;;13.00
18219;BMP180;9234;49.344;11.120;2023-03-19T09:26:01;97553.00;;;13.10
18219;BMP180;9234;49.344;11.120;2023-03-19T09:28:29;97561.00;;;13.10
18219;BMP180;9234;49.344;11.120;2023-03-19T09:31:00;97556.00;;;13.10
18219;BMP180;9234;49.344;11.120;2023-03-19T09:33:32;97560.00;;;13.20
18219;BMP180;9234;49.344;11.120;2023-03-19T09:36:01;97559.00;;;13.20
18219;BMP180;9234;49.344;11.120;2023-03-19T09:38:29;97556.00;;;13.30
18219;BMP180;9234;49.344;11.120;2023-03-19T09:41:09;97563.00;;;13.40
18219;BMP180;9234;49.344;11.120;2023-03-19T09:43:57;97566.00;;;13.40
18219;BMP180;9234;49.344;11.120;2023-03-19T09:46:37;97553.00;;;13.50
18219;BMP180;9234;49.344;11.120;2023-03-19T09:49:15;97554.00;;;13.60
18219;BMP180;9234;49.344;11.120;2023-03-19T09:51:50;97561.00;;;13.70
18219;BMP180;9234;49.344;11.120;2023-03-19T09:54:28;97569.00;;;13.80
18219;BMP180;9234;49.344;11.120;2023-03-19T09:56:58;97570.00;;;13.80
18219;BMP180;9234;49.344;11.120;2023-03-19T09:59:29;97574.00;;;13.90
18219;BMP180;9234;49.344;11.120;2023-03-19T10:02:16;97556.00;;;13.90
18219;BMP180;9234;49.344;11.120;2023-03-19T10:05:12;97562.00;;;13.80
18219;BMP180;9234;49.344;11.120;2023-03-19T10:08:13;97562.00;;;13.80
18219;BMP180;9234;49.344;11.120;2023-03-19T10:10:52;97562.00;;;13.80
18219;BMP180;9234;49.344;11.120;2023-03-19T10:13:38;97564.00;;;13.80
18219;BMP180;9234;49.344;11.120;2023-03-19T10:16:15;97568.00;;;13.80
18219;BMP180;9234;49.344;11.120;2023-03-19T10:18:49;97576.00;;;13.80
18219;BMP180;9234;49.344;11.120;2023-03-19T10:21:24;97574.00;;;13.80
18219;BMP180;9234;49.344;11.120;2023-03-19T10:23:59;97561.00;;;13.80
18219;BMP180;9234;49.344;11.120;2023-03-19T10:26:31;97563.00;;;13.80
18219;BMP180;9234;49.344;11.120;2023-03-19T10:29:07;97559.00;;;13.80
18219;BMP180;9234;49.344;11.120;2023-03-19T10:31:48;97557.00;;;13.80
18219;BMP180;9234;49.344;11.120;2023-03-19T10:34:30;97562.00;;;13.80
18219;BMP180;9234;49.344;11.120;2023-03-19T10:37:01;97555.00;;;13.80
18219;BMP180;9234;49.344;11.120;2023-03-19T10:39:34;97553.00;;;13.80
18219;BMP180;9234;49.344;11.120;2023-03-19T10:42:25;97556.00;;;13.80
18219;BMP180;9234;49.344;11.120;2023-03-19T10:45:08;97556.00;;;13.90
18219;BMP180;9234;49.344;11.120;2023-03-19T10:47:42;97547.00;;;13.90
18219;BMP180;9234;49.344;11.120;2023-03-19T10:50:16;97548.00;;;13.90
18219;BMP180;9234;49.344;11.120;2023-03-19T10:52:51;97542.00;;;13.90
18219;BMP180;9234;49.344;11.120;2023-03-19T10:55:24;97533.00;;;14.00
18219;BMP180;9234;49.344;11.120;2023-03-19T10:58:02;97540.00;;;14.10
18219;BMP180;9234;49.344;11.120;2023-03-19T11:00:33;97529.00;;;14.20
18219;BMP180;9234;49.344;11.120;2023-03-19T11:03:02;97532.00;;;14.40
18219;BMP180;9234;49.344;11.120;2023-03-19T11:05:33;97540.00;;;14.60
18219;BMP180;9234;49.344;11.120;2023-03-19T11:08:05;97540.00;;;14.80
18219;BMP180;9234;49.344;11.120;2023-03-19T11:10:34;97532.00;;;15.00
18219;BMP180;9234;49.344;11.120;2023-03-19T11:13:13;97525.00;;;15.30
18219;BMP180;9234;49.344;11.120;2023-03-19T11:15:47;97526.00;;;15.60
18219;BMP180;9234;49.344;11.120;2023-03-19T11:18:20;97523.00;;;16.00
18219;BMP180;9234;49.344;11.120;2023-03-19T11:20:55;97526.00;;;16.10
18219;BMP180;9234;49.344;11.120;2023-03-19T11:27:05;97531.00;;;16.80
18219;BMP180;9234;49.344;11.120;2023-03-19T11:29:40;97524.00;;;17.10
18219;BMP180;9234;49.344;11.120;2023-03-19T11:32:29;97513.00;;;17.30
18219;BMP180;9234;49.344;11.120;2023-03-19T11:35:06;97514.00;;;17.40
18219;BMP180;9234;49.344;11.120;2023-03-19T11:37:53;97505.00;;;17.60
18219;BMP180;9234;49.344;11.120;2023-03-19T11:40:42;97501.00;;;17.90
18219;BMP180;9234;49.344;11.120;2023-03-19T11:43:40;97500.00;;;18.20
18219;BMP180;9234;49.344;11.120;2023-03-19T11:46:35;97501.00;;;18.50
18219;BMP180;9234;49.344;11.120;2023-03-19T11:49:33;97483.00;;;18.50
18219;BMP180;9234;49.344;11.120;2023-03-19T11:52:13;97483.00;;;18.50
18219;BMP180;9234;49.344;11.120;2023-03-19T11:54:59;97482.00;;;18.60
18219;BMP180;9234;49.344;11.120;2023-03-19T11:57:50;97484.00;;;18.60
18219;BMP180;9234;49.344;11.120;2023-03-19T12:00:29;97478.00;;;18.60
18219;BMP180;9234;49.344;11.120;2023-03-19T12:03:53;97469.00;;;18.70
18219;BMP180;9234;49.344;11.120;2023-03-19T12:06:40;97469.00;;;19.00
18219;BMP180;9234;49.344;11.120;2023-03-19T12:09:20;97458.00;;;19.40
18219;BMP180;9234;49.344;11.120;2023-03-19T12:11:56;97459.00;;;19.90
18219;BMP180;9234;49.344;11.120;2023-03-19T12:14:42;97453.00;;;20.30
18219;BMP180;9234;49.344;11.120;2023-03-19T12:20:26;97453.00;;;20.90
18219;BMP180;9234;49.344;11.120;2023-03-19T12:23:14;97453.00;;;21.50
18219;BMP180;9234;49.344;11.120;2023-03-19T12:26:01;97446.00;;;22.10
18219;BMP180;9234;49.344;11.120;2023-03-19T12:28:35;97440.00;;;22.80
18219;BMP180;9234;49.344;11.120;2023-03-19T12:31:44;97448.00;;;23.60
18219;BMP180;9234;49.344;11.120;2023-03-19T12:34:26;97447.00;;;24.10
18219;BMP180;9234;49.344;11.120;2023-03-19T12:37:16;97449.00;;;24.40
18219;BMP180;9234;49.344;11.120;2023-03-19T12:40:04;97447.00;;;24.60
18219;BMP180;9234;49.344;11.120;2023-03-19T12:42:38;97443.00;;;25.10
18219;BMP180;9234;49.344;11.120;2023-03-19T12:45:24;97448.00;;;25.60
18219;BMP180;9234;49.344;11.120;2023-03-19T12:48:01;97445.00;;;25.80
18219;BMP180;9234;49.344;11.120;2023-03-19T12:50:37;97434.00;;;26.20
18219;BMP180;9234;49.344;11.120;2023-03-19T12:53:16;97449.00;;;26.40
18219;BMP180;9234;49.344;11.120;2023-03-19T12:55:56;97433.00;;;26.40
18219;BMP180;9234;49.344;11.120;2023-03-19T12:58:37;97436.00;;;26.50
18219;BMP180;9234;49.344;11.120;2023-03-19T13:01:12;97434.00;;;26.10
18219;BMP180;9234;49.344;11.120;2023-03-19T13:03:54;97434.00;;;26.30
18219;BMP180;9234;49.344;11.120;2023-03-19T13:06:29;97432.00;;;26.80
18219;BMP180;9234;49.344;11.120;2023-03-19T13:09:04;97437.00;;;27.10
18219;BMP180;9234;49.344;11.120;2023-03-19T13:11:44;97436.00;;;27.30
18219;BMP180;9234;49.344;11.120;2023-03-19T13:14:21;97432.00;;;27.70
18219;BMP180;9234;49.344;11.120;2023-03-19T13:17:01;97430.00;;;28.10
18219;BMP180;9234;49.344;11.120;2023-03-19T13:19:39;97434.00;;;28.50
18219;BMP180;9234;49.344;11.120;2023-03-19T13:22:14;97429.00;;;29.00
18219;BMP180;9234;49.344;11.120;2023-03-19T13:24:46;97429.00;;;29.20
18219;BMP180;9234;49.344;11.120;2023-03-19T13:27:22;97436.00;;;29.20
18219;BMP180;9234;49.344;11.120;2023-03-19T13:30:11;97430.00;;;29.40
18219;BMP180;9234;49.344;11.120;2023-03-19T13:32:47;97435.00;;;29.20
18219;BMP180;9234;49.344;11.120;2023-03-19T13:35:36;97434.00;;;29.00
18219;BMP180;9234;49.344;11.120;2023-03-19T13:38:18;97423.00;;;29.00
18219;BMP180;9234;49.344;11.120;2023-03-19T13:40:49;97417.00;;;29.30
18219;BMP180;9234;49.344;11.120;2023-03-19T13:43:41;97426.00;;;29.70
18219;BMP180;9234;49.344;11.120;2023-03-19T13:46:43;97420.00;;;29.90
18219;BMP180;9234;49.344;11.120;2023-03-19T13:49:32;97415.00;;;30.30
18219;BMP180;9234;49.344;11.120;2023-03-19T13:52:45;97416.00;;;30.70
18219;BMP180;9234;49.344;11.120;2023-03-19T13:55:48;97416.00;;;31.10
18219;BMP180;9234;49.344;11.120;2023-03-19T13:58:21;97414.00;;;30.80
18219;BMP180;9234;49.344;11.120;2023-03-19T14:03:56;97404.00;;;29.40
18219;BMP180;9234;49.344;11.120;2023-03-19T14:06:35;97403.00;;;27.90
18219;BMP180;9234;49.344;11.120;2023-03-19T14:09:30;97406.00;;;26.70
18219;BMP180;9234;49.344;11.120;2023-03-19T14:12:22;97397.00;;;25.80
18219;BMP180;9234;49.344;11.120;2023-03-19T14:14:56;97396.00;;;25.10
18219;BMP180;9234;49.344;11.120;2023-03-19T14:17:45;97399.00;;;24.50
18219;BMP180;9234;49.344;11.120;2023-03-19T14:20:25;97398.00;;;24.00
18219;BMP180;9234;49.344;11.120;2023-03-19T14:23:20;97396.00;;;23.60
18219;BMP180;9234;49.344;11.120;2023-03-19T14:26:15;97395.00;;;23.20
18219;BMP180;9234;49.344;11.120;2023-03-19T14:28:55;97390.00;;;22.90
18219;BMP180;9234;49.344;11.120;2023-03-19T14:31:41;97393.00;;;22.50
18219;BMP180;9234;49.344;11.120;2023-03-19T14:34:23;97392.00;;;22.30
18219;BMP180;9234;49.344;11.120;2023-03-19T14:37:00;97405.00;;;22.00
18219;BMP180;9234;49.344;11.120;2023-03-19T14:39:32;97400.00;;;21.80
18219;BMP180;9234;49.344;11.120;2023-03-19T14:42:17;97398.00;;;21.60
18219;BMP180;9234;49.344;11.120;2023-03-19T14:45:45;97403.00;;;21.40
18219;BMP180;9234;49.344;11.120;2023-03-19T14:48:58;97394.00;;;21.10
18219;BMP180;9234;49.344;11.120;2023-03-19T14:51:54;97397.00;;;20.90
18219;BMP180;9234;49.344;11.120;2023-03-19T14:54:33;97399.00;;;20.70
18219;BMP180;9234;49.344;11.120;2023-03-19T14:57:07;97393.00;;;20.80
18219;BMP180;9234;49.344;11.120;2023-03-19T14:59:42;97406.00;;;21.90
18219;BMP180;9234;49.344;11.120;2023-03-19T15:02:34;97389.00;;;23.30
18219;BMP180;9234;49.344;11.120;2023-03-19T15:05:07;97385.00;;;23.80
18219;BMP180;9234;49.344;11.120;2023-03-19T15:07:41;97396.00;;;24.00